sensor_id;sensor_type;location;lat;lon;timestamp;temperature;humidity
30037;DHT22;36325;51.512;-0.382;2023-04-07T00:02:18;6.50;99.90
30037;DHT22;36325;51.512;-0.382;2023-04-07T00:04:45;6.50;99.90
30037;DHT22;36325;51.512;-0.382;2023-04-07T00:07:13;6.50;99.90
30037;DHT22;36325;51.512;-0.382;2023-04-07T00:09:40;6.50;99.90
30037;DHT22;36325;51.512;-0.382;2023-04-07T00:17:03;6.40;99.90
30037;DHT22;36325;51.512;-0.382;2023-04-07T00:19:30;6.50;99.90
30037;DHT22;36325;51.512;-0.382;2023-04-07T00:21:59;6.40;99.90
30037;DHT22;36325;51.512;-0.382;2023-04-07T00:24:27;6.40;99.90
30037;DHT22;36325;51.512;-0.382;2023-04-07T00:27:00;6.40;99.90
30037;DHT22;36325;51.512;-0.382;2023-04-07T00:29:29;6.40;99.90
30037;DHT22;36325;51.512;-0.382;2023-04-07T00:34:24;6.30;99.90
30037;DHT22;36325;51.512;-0.382;2023-04-07T00:36:51;6.30;99.90
30037;DHT22;36325;51.512;-0.382;2023-04-07T00:41:47;6.30;99.90
30037;DHT22;36325;51.512;-0.382;2023-04-07T00:46:42;6.30;99.90
30037;DHT22;36325;51.512;-0.382;2023-04-07T00:59:03;6.40;99.90
30037;DHT22;36325;51.512;-0.382;2023-04-07T01:04:46;6.40;99.90
30037;DHT22;36325;51.512;-0.382;2023-04-07T01:07:23;6.50;99.90
30037;DHT22;36325;51.512;-0.382;2023-04-07T01:10:05;6.40;99.90
30037;DHT22;36325;51.512;-0.382;2023-04-07T01:13:03;6.40;99.90
30037;DHT22;36325;51.512;-0.382;2023-04-07T01:15:33;6.40;99.90
30037;DHT22;36325;51.512;-0.382;2023-04-07T01:18:09;6.40;99.90
30037;DHT22;36325;51.512;-0.382;2023-04-07T01:20:39;6.30;99.90
30037;DHT22;36325;51.512;-0.382;2023-04-07T01:23:16;6.30;99.90
30037;DHT22;36325;51.512;-0.382;2023-04-07T01:26:16;6.30;99.90
30037;DHT22;36325;51.512;-0.382;2023-04-07T01:31:49;6.20;99.90
30037;DHT22;36325;51.512;-0.382;2023-04-07T01:34:18;6.20;99.90
30037;DHT22;36325;51.512;-0.382;2023-04-07T01:39:14;6.10;99.90
30037;DHT22;36325;51.512;-0.382;2023-04-07T01:41:43;6.10;99.90
30037;DHT22;36325;51.512;-0.382;2023-04-07T01:44:11;6.00;99.90
30037;DHT22;36325;51.512;-0.382;2023-04-07T01:46:40;6.00;99.90
30037;DHT22;36325;51.512;-0.382;2023-04-07T01:49:07;5.90;99.90
30037;DHT22;36325;51.512;-0.382;2023-04-07T01:51:35;6.00;99.90
30037;DHT22;36325;51.512;-0.382;2023-04-07T01:54:03;5.90;99.90
30037;DHT22;36325;51.512;-0.382;2023-04-07T01:56:31;5.90;99.90
30037;DHT22;36325;51.512;-0.382;2023-04-07T02:01:28;5.90;99.90
30037;DHT22;36325;51.512;-0.382;2023-04-07T02:06:53;5.80;99.90
30037;DHT22;36325;51.512;-0.382;2023-04-07T02:09:31;5.80;99.90
30037;DHT22;36325;51.512;-0.382;2023-04-07T02:12:00;5.80;99.90
30037;DHT22;36325;51.512;-0.382;2023-04-07T02:14:33;5.80;99.90
30037;DHT22;36325;51.512;-0.382;2023-04-07T02:17:06;5.80;99.90
30037;DHT22;36325;51.512;-0.382;2023-04-07T02:19:33;5.80;99.90
30037;DHT22;36325;51.512;-0.382;2023-04-07T02:22:02;5.80;99.90
30037;DHT22;36325;51.512;-0.382;2023-04-07T02:24:30;5.80;99.90
30037;DHT22;36325;51.512;-0.382;2023-04-07T02:26:58;5.70;99.90
30037;DHT22;36325;51.512;-0.382;2023-04-07T02:29:28;5.70;99.90
30037;DHT22;36325;51.512;-0.382;2023-04-07T02:31:55;5.70;99.90
30037;DHT22;36325;51.512;-0.382;2023-04-07T02:34:22;5.70;99.90
30037;DHT22;36325;51.512;-0.382;2023-04-07T02:36:50;5.60;99.90
30037;DHT22;36325;51.512;-0.382;2023-04-07T02:39:17;5.60;99.90
30037;DHT22;36325;51.512;-0.382;2023-04-07T02:41:45;5.60;99.90
30037;DHT22;36325;51.512;-0.382;2023-04-07T02:51:37;5.60;99.90
30037;DHT22;36325;51.512;-0.382;2023-04-07T02:54:05;5.70;99.90
30037;DHT22;36325;51.512;-0.382;2023-04-07T02:56:32;5.70;99.90
30037;DHT22;36325;51.512;-0.382;2023-04-07T02:58:59;5.80;99.90
30037;DHT22;36325;51.512;-0.382;2023-04-07T03:14:02;5.90;99.90
30037;DHT22;36325;51.512;-0.382;2023-04-07T03:16:31;5.90;99.90
30037;DHT22;36325;51.512;-0.382;2023-04-07T03:19:03;5.90;99.90
30037;DHT22;36325;51.512;-0.382;2023-04-07T03:21:36;5.90;99.90
30037;DHT22;36325;51.512;-0.382;2023-04-07T03:24:06;5.90;99.90
30037;DHT22;36325;51.512;-0.382;2023-04-07T03:34:12;5.90;99.90
30037;DHT22;36325;51.512;-0.382;2023-04-07T03:39:07;6.00;99.90
30037;DHT22;36325;51.512;-0.382;2023-04-07T03:44:02;6.00;99.90
30037;DHT22;36325;51.512;-0.382;2023-04-07T03:46:31;5.90;99.90
30037;DHT22;36325;51.512;-0.382;2023-04-07T03:48:59;5.90;99.90
30037;DHT22;36325;51.512;-0.382;2023-04-07T03:51:26;5.90;99.90
30037;DHT22;36325;51.512;-0.382;2023-04-07T03:53:56;5.80;99.90
30037;DHT22;36325;51.512;-0.382;2023-04-07T03:56:39;5.80;99.90
30037;DHT22;36325;51.512;-0.382;2023-04-07T03:59:07;5.80;99.90
30037;DHT22;36325;51.512;-0.382;2023-04-07T04:01:41;5.70;99.90
30037;DHT22;36325;51.512;-0.382;2023-04-07T04:06:41;5.60;99.90
30037;DHT22;36325;51.512;-0.382;2023-04-07T04:09:31;5.60;99.90
30037;DHT22;36325;51.512;-0.382;2023-04-07T04:14:29;5.60;99.90
30037;DHT22;36325;51.512;-0.382;2023-04-07T04:16:59;5.50;99.90
30037;DHT22;36325;51.512;-0.382;2023-04-07T04:19:41;5.50;99.90
30037;DHT22;36325;51.512;-0.382;2023-04-07T04:22:19;5.50;99.90
30037;DHT22;36325;51.512;-0.382;2023-04-07T04:24:51;5.50;99.90
30037;DHT22;36325;51.512;-0.382;2023-04-07T04:27:20;5.40;99.90
30037;DHT22;36325;51.512;-0.382;2023-04-07T04:29:52;5.40;99.90
30037;DHT22;36325;51.512;-0.382;2023-04-07T04:32:29;5.40;99.90
30037;DHT22;36325;51.512;-0.382;2023-04-07T04:34:57;5.30;99.90
30037;DHT22;36325;51.512;-0.382;2023-04-07T04:37:24;5.30;99.90
30037;DHT22;36325;51.512;-0.382;2023-04-07T04:39:52;5.20;99.90
30037;DHT22;36325;51.512;-0.382;2023-04-07T04:42:21;5.20;99.90
30037;DHT22;36325;51.512;-0.382;2023-04-07T04:44:48;5.20;99.90
30037;DHT22;36325;51.512;-0.382;2023-04-07T04:47:17;5.20;99.90
30037;DHT22;36325;51.512;-0.382;2023-04-07T04:49:45;5.20;99.90
30037;DHT22;36325;51.512;-0.382;2023-04-07T04:52:13;5.20;99.90
30037;DHT22;36325;51.512;-0.382;2023-04-07T04:54:44;5.20;99.90
30037;DHT22;36325;51.512;-0.382;2023-04-07T04:57:11;5.20;99.90
30037;DHT22;36325;51.512;-0.382;2023-04-07T04:59:38;5.20;99.90
30037;DHT22;36325;51.512;-0.382;2023-04-07T05:02:06;5.30;99.90
30037;DHT22;36325;51.512;-0.382;2023-04-07T05:04:34;5.30;99.90
30037;DHT22;36325;51.512;-0.382;2023-04-07T05:07:14;5.30;99.90
30037;DHT22;36325;51.512;-0.382;2023-04-07T05:09:42;5.30;99.90
30037;DHT22;36325;51.512;-0.382;2023-04-07T05:12:09;5.30;99.90
30037;DHT22;36325;51.512;-0.382;2023-04-07T05:14:42;5.40;99.90
30037;DHT22;36325;51.512;-0.382;2023-04-07T05:19:37;5.50;99.90
30037;DHT22;36325;51.512;-0.382;2023-04-07T05:22:12;5.70;99.90
30037;DHT22;36325;51.512;-0.382;2023-04-07T05:24:45;5.70;99.90
30037;DHT22;36325;51.512;-0.382;2023-04-07T05:27:12;5.80;99.90
30037;DHT22;36325;51.512;-0.382;2023-04-07T05:29:41;5.80;99.90
30037;DHT22;36325;51.512;-0.382;2023-04-07T05:32:18;5.90;99.90
30037;DHT22;36325;51.512;-0.382;2023-04-07T05:34:46;6.00;99.90
30037;DHT22;36325;51.512;-0.382;2023-04-07T05:37:15;6.00;99.90
30037;DHT22;36325;51.512;-0.382;2023-04-07T05:39:43;6.20;99.90
30037;DHT22;36325;51.512;-0.382;2023-04-07T05:42:12;6.20;99.90
30037;DHT22;36325;51.512;-0.382;2023-04-07T05:44:41;6.30;99.90
30037;DHT22;36325;51.512;-0.382;2023-04-07T05:47:09;6.30;99.90
30037;DHT22;36325;51.512;-0.382;2023-04-07T05:49:39;6.30;99.90
30037;DHT22;36325;51.512;-0.382;2023-04-07T05:52:13;6.40;99.90
30037;DHT22;36325;51.512;-0.382;2023-04-07T05:54:43;6.50;99.90
30037;DHT22;36325;51.512;-0.382;2023-04-07T05:57:13;6.50;99.90
30037;DHT22;36325;51.512;-0.382;2023-04-07T05:59:43;6.60;99.90
30037;DHT22;36325;51.512;-0.382;2023-04-07T06:02:10;6.60;99.90
30037;DHT22;36325;51.512;-0.382;2023-04-07T06:04:39;6.60;99.90
30037;DHT22;36325;51.512;-0.382;2023-04-07T06:07:15;6.60;99.90
30037;DHT22;36325;51.512;-0.382;2023-04-07T06:12:10;6.60;99.90
30037;DHT22;36325;51.512;-0.382;2023-04-07T06:14:38;6.60;99.90
30037;DHT22;36325;51.512;-0.382;2023-04-07T06:17:05;6.60;99.90
30037;DHT22;36325;51.512;-0.382;2023-04-07T06:22:00;6.60;99.90
30037;DHT22;36325;51.512;-0.382;2023-04-07T06:24:27;6.50;99.90
30037;DHT22;36325;51.512;-0.382;2023-04-07T06:26:55;6.50;99.90
30037;DHT22;36325;51.512;-0.382;2023-04-07T06:29:22;6.50;99.90
30037;DHT22;36325;51.512;-0.382;2023-04-07T06:36:46;6.50;99.90
30037;DHT22;36325;51.512;-0.382;2023-04-07T06:39:13;6.50;99.90
30037;DHT22;36325;51.512;-0.382;2023-04-07T06:41:41;6.60;99.90
30037;DHT22;36325;51.512;-0.382;2023-04-07T06:44:09;6.60;99.90
30037;DHT22;36325;51.512;-0.382;2023-04-07T06:46:37;6.50;99.90
30037;DHT22;36325;51.512;-0.382;2023-04-07T06:49:04;6.70;99.90
30037;DHT22;36325;51.512;-0.382;2023-04-07T06:51:31;6.70;99.90
30037;DHT22;36325;51.512;-0.382;2023-04-07T06:53:59;6.90;99.90
30037;DHT22;36325;51.512;-0.382;2023-04-07T06:56:26;6.90;99.90
30037;DHT22;36325;51.512;-0.382;2023-04-07T06:58:53;7.00;99.90
30037;DHT22;36325;51.512;-0.382;2023-04-07T07:01:21;7.00;99.90
30037;DHT22;36325;51.512;-0.382;2023-04-07T07:03:48;7.10;99.90
30037;DHT22;36325;51.512;-0.382;2023-04-07T07:06:15;7.20;99.90
30037;DHT22;36325;51.512;-0.382;2023-04-07T07:08:43;7.30;99.90
30037;DHT22;36325;51.512;-0.382;2023-04-07T07:11:10;7.40;99.90
30037;DHT22;36325;51.512;-0.382;2023-04-07T07:13:37;7.50;99.90
30037;DHT22;36325;51.512;-0.382;2023-04-07T07:16:05;7.70;99.90
30037;DHT22;36325;51.512;-0.382;2023-04-07T07:18:32;7.80;99.90
30037;DHT22;36325;51.512;-0.382;2023-04-07T07:20:59;8.00;99.90
30037;DHT22;36325;51.512;-0.382;2023-04-07T07:23:26;8.20;99.90
30037;DHT22;36325;51.512;-0.382;2023-04-07T07:25:54;8.40;99.90
30037;DHT22;36325;51.512;-0.382;2023-04-07T07:28:21;8.70;99.90
30037;DHT22;36325;51.512;-0.382;2023-04-07T07:30:48;8.90;99.90
30037;DHT22;36325;51.512;-0.382;2023-04-07T07:33:15;9.10;99.90
30037;DHT22;36325;51.512;-0.382;2023-04-07T07:35:43;9.30;99.90
30037;DHT22;36325;51.512;-0.382;2023-04-07T07:38:10;9.60;99.90
30037;DHT22;36325;51.512;-0.382;2023-04-07T07:40:37;9.90;99.90
30037;DHT22;36325;51.512;-0.382;2023-04-07T07:43:04;10.20;99.90
30037;DHT22;36325;51.512;-0.382;2023-04-07T07:48:00;10.70;99.90
30037;DHT22;36325;51.512;-0.382;2023-04-07T07:50:29;11.20;99.90
30037;DHT22;36325;51.512;-0.382;2023-04-07T07:55:24;11.40;99.90
30037;DHT22;36325;51.512;-0.382;2023-04-07T07:57:51;11.70;99.90
30037;DHT22;36325;51.512;-0.382;2023-04-07T08:00:18;11.80;99.90
30037;DHT22;36325;51.512;-0.382;2023-04-07T08:02:45;12.00;99.90
30037;DHT22;36325;51.512;-0.382;2023-04-07T08:05:13;12.30;99.90
30037;DHT22;36325;51.512;-0.382;2023-04-07T08:07:40;12.40;99.90
30037;DHT22;36325;51.512;-0.382;2023-04-07T08:10:09;12.70;99.90
30037;DHT22;36325;51.512;-0.382;2023-04-07T08:15:04;13.10;99.90
30037;DHT22;36325;51.512;-0.382;2023-04-07T08:17:32;13.30;99.90
30037;DHT22;36325;51.512;-0.382;2023-04-07T08:19:59;13.80;99.90
30037;DHT22;36325;51.512;-0.382;2023-04-07T08:22:27;14.00;99.90
30037;DHT22;36325;51.512;-0.382;2023-04-07T08:27:22;14.40;99.90
30037;DHT22;36325;51.512;-0.382;2023-04-07T08:29:58;14.30;99.90
30037;DHT22;36325;51.512;-0.382;2023-04-07T08:32:37;14.60;99.90
30037;DHT22;36325;51.512;-0.382;2023-04-07T08:35:05;14.80;99.90
30037;DHT22;36325;51.512;-0.382;2023-04-07T08:37:33;14.90;99.90
30037;DHT22;36325;51.512;-0.382;2023-04-07T08:40:02;14.90;99.90
30037;DHT22;36325;51.512;-0.382;2023-04-07T08:42:39;15.00;99.90
30037;DHT22;36325;51.512;-0.382;2023-04-07T08:45:15;15.00;99.90
30037;DHT22;36325;51.512;-0.382;2023-04-07T08:52:52;15.30;99.90
30037;DHT22;36325;51.512;-0.382;2023-04-07T08:57:48;15.50;99.90
30037;DHT22;36325;51.512;-0.382;2023-04-07T09:00:16;15.80;99.90
30037;DHT22;36325;51.512;-0.382;2023-04-07T09:02:44;16.00;99.90
30037;DHT22;36325;51.512;-0.382;2023-04-07T09:05:12;16.20;99.90
30037;DHT22;36325;51.512;-0.382;2023-04-07T09:10:10;16.50;99.90
30037;DHT22;36325;51.512;-0.382;2023-04-07T09:12:37;16.60;99.90
30037;DHT22;36325;51.512;-0.382;2023-04-07T09:15:06;16.70;99.90
30037;DHT22;36325;51.512;-0.382;2023-04-07T09:17:34;17.00;99.90
30037;DHT22;36325;51.512;-0.382;2023-04-07T09:20:02;17.00;99.90
30037;DHT22;36325;51.512;-0.382;2023-04-07T09:22:40;17.10;99.90
30037;DHT22;36325;51.512;-0.382;2023-04-07T09:25:19;17.40;99.90
30037;DHT22;36325;51.512;-0.382;2023-04-07T09:28:03;17.40;99.90
30037;DHT22;36325;51.512;-0.382;2023-04-07T09:30:32;16.90;99.90
30037;DHT22;36325;51.512;-0.382;2023-04-07T09:33:00;17.80;99.90
30037;DHT22;36325;51.512;-0.382;2023-04-07T09:35:27;18.00;99.90
30037;DHT22;36325;51.512;-0.382;2023-04-07T09:38:08;18.20;99.90
30037;DHT22;36325;51.512;-0.382;2023-04-07T09:40:36;18.40;99.90
30037;DHT22;36325;51.512;-0.382;2023-04-07T09:43:05;18.60;99.90
30037;DHT22;36325;51.512;-0.382;2023-04-07T09:45:32;18.90;99.90
30037;DHT22;36325;51.512;-0.382;2023-04-07T09:48:07;18.90;99.90
30037;DHT22;36325;51.512;-0.382;2023-04-07T09:50:38;18.90;99.90
30037;DHT22;36325;51.512;-0.382;2023-04-07T09:53:07;19.00;99.90
30037;DHT22;36325;51.512;-0.382;2023-04-07T09:55:34;19.10;99.90
30037;DHT22;36325;51.512;-0.382;2023-04-07T09:58:03;19.30;99.90
30037;DHT22;36325;51.512;-0.382;2023-04-07T10:00:32;19.30;99.90
30037;DHT22;36325;51.512;-0.382;2023-04-07T10:02:59;19.50;99.90
30037;DHT22;36325;51.512;-0.382;2023-04-07T10:05:28;19.60;99.90
30037;DHT22;36325;51.512;-0.382;2023-04-07T10:07:55;19.50;99.90
30037;DHT22;36325;51.512;-0.382;2023-04-07T10:10:23;19.30;99.90
30037;DHT22;36325;51.512;-0.382;2023-04-07T10:12:53;19.20;99.90
30037;DHT22;36325;51.512;-0.382;2023-04-07T10:15:23;18.80;99.90
30037;DHT22;36325;51.512;-0.382;2023-04-07T10:17:50;19.00;99.90
30037;DHT22;36325;51.512;-0.382;2023-04-07T10:20:19;19.40;99.90
30037;DHT22;36325;51.512;-0.382;2023-04-07T10:22:49;19.80;99.90
30037;DHT22;36325;51.512;-0.382;2023-04-07T10:25:19;20.20;99.90
30037;DHT22;36325;51.512;-0.382;2023-04-07T10:27:51;20.40;99.90
30037;DHT22;36325;51.512;-0.382;2023-04-07T10:30:27;20.50;99.90
30037;DHT22;36325;51.512;-0.382;2023-04-07T10:32:54;20.80;99.90
30037;DHT22;36325;51.512;-0.382;2023-04-07T10:35:22;21.10;99.90
30037;DHT22;36325;51.512;-0.382;2023-04-07T10:38:11;21.40;99.90
30037;DHT22;36325;51.512;-0.382;2023-04-07T10:40:40;21.50;99.90
30037;DHT22;36325;51.512;-0.382;2023-04-07T10:43:09;21.30;99.90
30037;DHT22;36325;51.512;-0.382;2023-04-07T10:48:15;20.20;99.90
30037;DHT22;36325;51.512;-0.382;2023-04-07T10:53:34;19.20;99.90
30037;DHT22;36325;51.512;-0.382;2023-04-07T10:56:01;19.30;99.90
30037;DHT22;36325;51.512;-0.382;2023-04-07T10:58:29;20.10;99.90
30037;DHT22;36325;51.512;-0.382;2023-04-07T11:03:37;21.40;99.90
30037;DHT22;36325;51.512;-0.382;2023-04-07T11:06:07;21.70;99.90
30037;DHT22;36325;51.512;-0.382;2023-04-07T11:08:38;21.60;99.90
30037;DHT22;36325;51.512;-0.382;2023-04-07T11:11:07;21.20;99.90
30037;DHT22;36325;51.512;-0.382;2023-04-07T11:13:50;20.90;99.90
30037;DHT22;36325;51.512;-0.382;2023-04-07T11:16:18;21.10;99.90
30037;DHT22;36325;51.512;-0.382;2023-04-07T11:18:46;22.00;99.90
30037;DHT22;36325;51.512;-0.382;2023-04-07T11:21:17;21.80;99.90
30037;DHT22;36325;51.512;-0.382;2023-04-07T11:23:46;21.90;99.90
30037;DHT22;36325;51.512;-0.382;2023-04-07T11:26:14;22.80;99.90
30037;DHT22;36325;51.512;-0.382;2023-04-07T11:28:53;23.10;99.90
30037;DHT22;36325;51.512;-0.382;2023-04-07T11:31:30;23.70;99.90
30037;DHT22;36325;51.512;-0.382;2023-04-07T11:34:00;23.90;99.90
30037;DHT22;36325;51.512;-0.382;2023-04-07T11:36:38;23.70;99.90
30037;DHT22;36325;51.512;-0.382;2023-04-07T11:39:05;24.60;99.90
30037;DHT22;36325;51.512;-0.382;2023-04-07T11:41:47;25.60;99.90
30037;DHT22;36325;51.512;-0.382;2023-04-07T11:44:15;26.30;99.90
30037;DHT22;36325;51.512;-0.382;2023-04-07T11:46:56;27.20;99.90
30037;DHT22;36325;51.512;-0.382;2023-04-07T11:49:28;28.20;99.90
30037;DHT22;36325;51.512;-0.382;2023-04-07T11:52:05;28.70;99.90
30037;DHT22;36325;51.512;-0.382;2023-04-07T11:54:42;27.90;96.90
30037;DHT22;36325;51.512;-0.382;2023-04-07T11:57:13;26.20;97.50
30037;DHT22;36325;51.512;-0.382;2023-04-07T11:59:40;26.20;97.90
30037;DHT22;36325;51.512;-0.382;2023-04-07T12:02:08;27.10;97.40
30037;DHT22;36325;51.512;-0.382;2023-04-07T12:04:36;28.40;94.90
30037;DHT22;36325;51.512;-0.382;2023-04-07T12:07:10;28.40;95.60
30037;DHT22;36325;51.512;-0.382;2023-04-07T12:09:39;28.90;94.20
30037;DHT22;36325;51.512;-0.382;2023-04-07T12:12:07;29.50;92.90
30037;DHT22;36325;51.512;-0.382;2023-04-07T12:14:35;29.40;91.70
30037;DHT22;36325;51.512;-0.382;2023-04-07T12:17:02;30.10;91.20
30037;DHT22;36325;51.512;-0.382;2023-04-07T12:19:31;30.70;90.30
30037;DHT22;36325;51.512;-0.382;2023-04-07T12:22:02;31.20;90.40
30037;DHT22;36325;51.512;-0.382;2023-04-07T12:24:29;31.80;89.30
30037;DHT22;36325;51.512;-0.382;2023-04-07T12:26:58;32.50;87.70
30037;DHT22;36325;51.512;-0.382;2023-04-07T12:29:26;32.90;85.00
30037;DHT22;36325;51.512;-0.382;2023-04-07T12:31:53;33.00;80.80
30037;DHT22;36325;51.512;-0.382;2023-04-07T12:34:22;33.70;76.10
30037;DHT22;36325;51.512;-0.382;2023-04-07T12:36:49;33.60;76.60
30037;DHT22;36325;51.512;-0.382;2023-04-07T12:39:16;33.40;73.40
30037;DHT22;36325;51.512;-0.382;2023-04-07T12:41:43;33.80;72.70
30037;DHT22;36325;51.512;-0.382;2023-04-07T12:44:15;33.40;68.20
30037;DHT22;36325;51.512;-0.382;2023-04-07T12:46:42;32.10;67.60
30037;DHT22;36325;51.512;-0.382;2023-04-07T12:51:37;28.40;68.20
30037;DHT22;36325;51.512;-0.382;2023-04-07T12:56:33;27.70;68.30
30037;DHT22;36325;51.512;-0.382;2023-04-07T12:59:00;30.70;70.90
30037;DHT22;36325;51.512;-0.382;2023-04-07T13:03:55;31.50;69.00
30037;DHT22;36325;51.512;-0.382;2023-04-07T13:06:22;31.60;67.70
30037;DHT22;36325;51.512;-0.382;2023-04-07T13:11:18;32.20;67.80
30037;DHT22;36325;51.512;-0.382;2023-04-07T13:13:45;33.20;66.70
30037;DHT22;36325;51.512;-0.382;2023-04-07T13:16:13;32.50;64.80
30037;DHT22;36325;51.512;-0.382;2023-04-07T13:18:40;30.70;64.30
30037;DHT22;36325;51.512;-0.382;2023-04-07T13:21:09;29.40;65.10
30037;DHT22;36325;51.512;-0.382;2023-04-07T13:23:58;27.70;66.60
30037;DHT22;36325;51.512;-0.382;2023-04-07T13:26:25;29.60;66.30
30037;DHT22;36325;51.512;-0.382;2023-04-07T13:28:52;29.60;67.10
30037;DHT22;36325;51.512;-0.382;2023-04-07T13:31:20;28.90;68.00
30037;DHT22;36325;51.512;-0.382;2023-04-07T13:33:52;27.70;67.60
30037;DHT22;36325;51.512;-0.382;2023-04-07T13:36:19;26.60;69.50
30037;DHT22;36325;51.512;-0.382;2023-04-07T13:38:51;25.60;69.40
30037;DHT22;36325;51.512;-0.382;2023-04-07T13:41:19;23.80;69.80
30037;DHT22;36325;51.512;-0.382;2023-04-07T13:43:47;23.80;70.60
30037;DHT22;36325;51.512;-0.382;2023-04-07T13:46:15;24.50;70.60
30037;DHT22;36325;51.512;-0.382;2023-04-07T13:48:54;26.40;68.60
30037;DHT22;36325;51.512;-0.382;2023-04-07T13:51:21;28.10;67.70
30037;DHT22;36325;51.512;-0.382;2023-04-07T13:53:48;29.70;66.60
30037;DHT22;36325;51.512;-0.382;2023-04-07T13:56:16;31.10;66.10
30037;DHT22;36325;51.512;-0.382;2023-04-07T13:58:43;31.90;65.10
30037;DHT22;36325;51.512;-0.382;2023-04-07T14:01:10;32.80;65.60
30037;DHT22;36325;51.512;-0.382;2023-04-07T14:03:37;33.00;62.80
30037;DHT22;36325;51.512;-0.382;2023-04-07T14:06:05;32.70;62.10
30037;DHT22;36325;51.512;-0.382;2023-04-07T14:08:32;30.70;62.00
30037;DHT22;36325;51.512;-0.382;2023-04-07T14:11:01;28.60;61.20
30037;DHT22;36325;51.512;-0.382;2023-04-07T14:13:28;27.00;63.00
30037;DHT22;36325;51.512;-0.382;2023-04-07T14:15:56;26.90;63.70
30037;DHT22;36325;51.512;-0.382;2023-04-07T14:18:24;25.80;64.30
30037;DHT22;36325;51.512;-0.382;2023-04-07T14:20:53;27.10;64.40
30037;DHT22;36325;51.512;-0.382;2023-04-07T14:23:21;27.20;65.30
30037;DHT22;36325;51.512;-0.382;2023-04-07T14:26:02;28.90;64.50
30037;DHT22;36325;51.512;-0.382;2023-04-07T14:28:29;30.80;63.20
30037;DHT22;36325;51.512;-0.382;2023-04-07T14:30:56;32.00;62.00
30037;DHT22;36325;51.512;-0.382;2023-04-07T14:33:23;32.90;60.40
30037;DHT22;36325;51.512;-0.382;2023-04-07T14:35:52;33.90;59.60
30037;DHT22;36325;51.512;-0.382;2023-04-07T14:38:19;34.60;58.20
30037;DHT22;36325;51.512;-0.382;2023-04-07T14:40:52;34.40;56.20
30037;DHT22;36325;51.512;-0.382;2023-04-07T14:43:19;34.30;55.40
30037;DHT22;36325;51.512;-0.382;2023-04-07T14:45:47;34.40;55.30
30037;DHT22;36325;51.512;-0.382;2023-04-07T14:48:14;32.90;54.00
30037;DHT22;36325;51.512;-0.382;2023-04-07T14:53:10;31.00;54.00
30037;DHT22;36325;51.512;-0.382;2023-04-07T14:55:38;29.20;55.20
30037;DHT22;36325;51.512;-0.382;2023-04-07T14:58:07;27.50;56.10
30037;DHT22;36325;51.512;-0.382;2023-04-07T15:00:34;26.00;57.30
30037;DHT22;36325;51.512;-0.382;2023-04-07T15:03:02;24.80;58.50
30037;DHT22;36325;51.512;-0.382;2023-04-07T15:05:29;24.00;59.70
30037;DHT22;36325;51.512;-0.382;2023-04-07T15:07:56;22.90;60.60
30037;DHT22;36325;51.512;-0.382;2023-04-07T15:10:24;21.80;62.80
30037;DHT22;36325;51.512;-0.382;2023-04-07T15:12:51;21.80;63.40
30037;DHT22;36325;51.512;-0.382;2023-04-07T15:15:19;21.40;63.60
30037;DHT22;36325;51.512;-0.382;2023-04-07T15:17:47;21.10;64.50
30037;DHT22;36325;51.512;-0.382;2023-04-07T15:20:14;20.80;66.00
30037;DHT22;36325;51.512;-0.382;2023-04-07T15:27:37;20.10;67.30
30037;DHT22;36325;51.512;-0.382;2023-04-07T15:30:05;20.10;68.10
30037;DHT22;36325;51.512;-0.382;2023-04-07T15:32:32;22.80;66.20
30037;DHT22;36325;51.512;-0.382;2023-04-07T15:34:59;22.90;66.80
30037;DHT22;36325;51.512;-0.382;2023-04-07T15:37:26;24.50;65.00
30037;DHT22;36325;51.512;-0.382;2023-04-07T15:39:54;25.70;62.90
30037;DHT22;36325;51.512;-0.382;2023-04-07T15:42:21;26.50;61.90
30037;DHT22;36325;51.512;-0.382;2023-04-07T15:44:49;27.40;61.10
30037;DHT22;36325;51.512;-0.382;2023-04-07T15:47:16;28.30;60.60
30037;DHT22;36325;51.512;-0.382;2023-04-07T15:49:43;28.10;58.00
30037;DHT22;36325;51.512;-0.382;2023-04-07T15:52:11;28.10;58.50
30037;DHT22;36325;51.512;-0.382;2023-04-07T15:54:39;28.20;58.60
30037;DHT22;36325;51.512;-0.382;2023-04-07T15:57:07;28.50;58.50
30037;DHT22;36325;51.512;-0.382;2023-04-07T15:59:34;29.10;58.60
30037;DHT22;36325;51.512;-0.382;2023-04-07T16:02:02;29.80;58.20
30037;DHT22;36325;51.512;-0.382;2023-04-07T16:04:29;30.20;57.60
30037;DHT22;36325;51.512;-0.382;2023-04-07T16:06:56;29.90;56.70
30037;DHT22;36325;51.512;-0.382;2023-04-07T16:09:23;29.60;56.70
30037;DHT22;36325;51.512;-0.382;2023-04-07T16:11:51;29.20;56.90
30037;DHT22;36325;51.512;-0.382;2023-04-07T16:14:19;28.30;56.50
30037;DHT22;36325;51.512;-0.382;2023-04-07T16:16:46;28.10;57.40
30037;DHT22;36325;51.512;-0.382;2023-04-07T16:19:16;29.10;56.40
30037;DHT22;36325;51.512;-0.382;2023-04-07T16:21:44;29.70;57.20
30037;DHT22;36325;51.512;-0.382;2023-04-07T16:24:11;29.50;56.40
30037;DHT22;36325;51.512;-0.382;2023-04-07T16:26:38;29.60;56.00
30037;DHT22;36325;51.512;-0.382;2023-04-07T16:29:05;29.60;55.40
30037;DHT22;36325;51.512;-0.382;2023-04-07T16:31:32;29.80;55.80
30037;DHT22;36325;51.512;-0.382;2023-04-07T16:34:00;30.00;55.50
30037;DHT22;36325;51.512;-0.382;2023-04-07T16:36:27;30.30;55.40
30037;DHT22;36325;51.512;-0.382;2023-04-07T16:38:54;30.50;54.90
30037;DHT22;36325;51.512;-0.382;2023-04-07T16:41:23;30.20;54.00
30037;DHT22;36325;51.512;-0.382;2023-04-07T16:43:50;29.90;54.10
30037;DHT22;36325;51.512;-0.382;2023-04-07T16:46:18;29.60;54.00
30037;DHT22;36325;51.512;-0.382;2023-04-07T16:48:46;29.20;53.80
30037;DHT22;36325;51.512;-0.382;2023-04-07T16:51:17;29.00;54.00
30037;DHT22;36325;51.512;-0.382;2023-04-07T16:53:45;29.10;54.20
30037;DHT22;36325;51.512;-0.382;2023-04-07T16:56:16;28.80;53.90
30037;DHT22;36325;51.512;-0.382;2023-04-07T16:58:43;28.20;54.00
30037;DHT22;36325;51.512;-0.382;2023-04-07T17:01:11;27.80;54.30
30037;DHT22;36325;51.512;-0.382;2023-04-07T17:03:38;27.60;54.40
30037;DHT22;36325;51.512;-0.382;2023-04-07T17:06:06;27.60;55.00
30037;DHT22;36325;51.512;-0.382;2023-04-07T17:08:35;27.80;55.00
30037;DHT22;36325;51.512;-0.382;2023-04-07T17:11:07;27.90;54.70
30037;DHT22;36325;51.512;-0.382;2023-04-07T17:13:35;27.60;54.50
30037;DHT22;36325;51.512;-0.382;2023-04-07T17:16:03;27.30;54.50
30037;DHT22;36325;51.512;-0.382;2023-04-07T17:18:32;26.20;54.20
30037;DHT22;36325;51.512;-0.382;2023-04-07T17:20:59;26.10;54.90
30037;DHT22;36325;51.512;-0.382;2023-04-07T17:23:26;26.00;55.60
30037;DHT22;36325;51.512;-0.382;2023-04-07T17:25:54;26.20;55.60
30037;DHT22;36325;51.512;-0.382;2023-04-07T17:28:21;26.20;56.10
30037;DHT22;36325;51.512;-0.382;2023-04-07T17:30:48;26.10;56.30
30037;DHT22;36325;51.512;-0.382;2023-04-07T17:33:15;25.90;56.60
30037;DHT22;36325;51.512;-0.382;2023-04-07T17:35:43;25.80;56.50
30037;DHT22;36325;51.512;-0.382;2023-04-07T17:38:13;24.60;55.80
30037;DHT22;36325;51.512;-0.382;2023-04-07T17:40:40;24.50;56.30
30037;DHT22;36325;51.512;-0.382;2023-04-07T17:43:08;24.10;56.80
30037;DHT22;36325;51.512;-0.382;2023-04-07T17:45:35;23.70;56.50
30037;DHT22;36325;51.512;-0.382;2023-04-07T17:48:02;23.70;57.10